createdAt,value
2022-10-28T00:02:08.098Z,85.80
2022-10-28T00:07:11.472Z,145.60
2022-10-28T00:12:14.673Z,115.40
2022-10-28T00:22:20.986Z,85.90
2022-10-28T00:27:24.093Z,101.70
2022-10-28T00:32:31.499Z,110.70
2022-10-28T00:37:34.707Z,96.30
2022-10-28T00:47:56.848Z,86.50
2022-10-28T00:53:25.904Z,93.00
2022-10-28T00:58:30.240Z,103.70
2022-10-28T01:03:33.447Z,87.00
2022-10-28T01:14:16.932Z,126.80
2022-10-28T01:19:38.777Z,171.00
2022-10-28T01:25:12.808Z,157.00
2022-10-28T01:30:23.803Z,110.20
2022-10-28T01:35:37.655Z,185.50
2022-10-28T01:41:06.470Z,189.60
2022-10-28T01:46:22.062Z,143.20
2022-10-28T01:51:47.797Z,226.90
2022-10-28T01:56:53.565Z,142.00
2022-10-28T02:01:57.470Z,212.60
2022-10-28T02:07:01.622Z,175.80
2022-10-28T02:12:20.393Z,162.10
2022-10-28T02:18:01.080Z,177.20
2022-10-28T02:23:53.038Z,182.10
2022-10-28T02:29:01.947Z,131.50
2022-10-28T02:34:11.835Z,118.60
2022-10-28T02:39:16.807Z,146.50
2022-10-28T02:44:26.559Z,109.30
2022-10-28T02:49:32.109Z,152.70
2022-10-28T02:54:42.813Z,160.40
2022-10-28T02:59:54.723Z,147.90
2022-10-28T03:04:58.122Z,155.70
2022-10-28T03:10:01.252Z,123.10
2022-10-28T03:15:06.172Z,97.20
2022-10-28T03:20:10.197Z,65.50
2022-10-28T03:25:13.406Z,72.80
2022-10-28T03:35:21.874Z,58.80
2022-10-28T03:40:25.282Z,65.60
2022-10-28T03:50:36.409Z,55.20
2022-10-28T04:00:42.930Z,68.70
2022-10-28T04:05:48.684Z,74.90
2022-10-28T04:10:51.808Z,78.60
2022-10-28T04:15:55.416Z,70.60
2022-10-28T04:20:58.933Z,81.60
2022-10-28T04:26:02.142Z,108.00
2022-10-28T04:31:05.865Z,80.40
2022-10-28T04:36:09.377Z,105.70
2022-10-28T04:41:14.719Z,106.20
2022-10-28T04:46:17.951Z,95.70
2022-10-28T04:51:21.151Z,97.60
2022-10-28T04:56:25.179Z,73.30
2022-10-28T05:01:28.431Z,86.20
2022-10-28T05:06:31.617Z,86.80
2022-10-28T05:11:34.802Z,77.00
2022-10-28T05:16:37.909Z,81.00
2022-10-28T05:21:41.116Z,71.40
2022-10-28T05:31:47.531Z,77.70
2022-10-28T05:36:51.250Z,86.00
2022-10-28T05:41:54.357Z,86.20
2022-10-28T05:46:57.462Z,72.20
2022-10-28T05:52:00.776Z,84.10
2022-10-28T05:57:04.495Z,79.30
2022-10-28T06:02:15.187Z,72.40
2022-10-28T06:07:18.384Z,76.00
2022-10-28T06:17:24.089Z,73.00
2022-10-28T06:22:27.301Z,74.20
2022-10-28T06:32:34.135Z,71.80
2022-10-28T06:37:37.755Z,71.80
2022-10-28T06:42:40.972Z,69.30
2022-10-28T06:52:48.607Z,73.40
2022-10-28T06:57:52.052Z,76.20
2022-10-28T07:02:56.860Z,75.30
2022-10-28T07:08:00.181Z,72.40
2022-10-28T07:18:06.709Z,61.70
2022-10-28T07:28:13.437Z,55.80
2022-10-28T07:33:17.056Z,39.50
2022-10-28T07:38:20.268Z,35.10
2022-10-28T07:43:23.583Z,31.40
2022-10-28T07:48:26.783Z,22.50
2022-10-28T07:53:31.012Z,31.00
2022-10-28T07:58:34.422Z,44.30
2022-10-28T08:03:38.989Z,26.70
2022-10-28T08:08:42.462Z,26.60
2022-10-28T08:13:46.579Z,20.30
2022-10-28T08:18:49.677Z,21.70
2022-10-28T08:23:54.929Z,17.20
2022-10-28T08:28:58.656Z,12.00
2022-10-28T08:34:01.857Z,10.50
2022-10-28T08:39:05.166Z,9.80
2022-10-28T08:44:42.376Z,11.50
2022-10-28T08:49:49.354Z,19.30
2022-10-28T08:55:07.858Z,24.20
2022-10-28T09:00:20.210Z,11.10
2022-10-28T09:05:26.039Z,11.70
2022-10-28T09:10:51.768Z,9.90
2022-10-28T09:16:02.964Z,11.60
2022-10-28T09:21:15.388Z,12.10
2022-10-28T09:26:41.227Z,11.00
2022-10-28T09:31:50.372Z,10.60
2022-10-28T09:37:03.720Z,11.10
2022-10-28T09:42:10.920Z,15.30
2022-10-28T09:47:26.109Z,15.40
2022-10-28T09:52:40.290Z,17.60
2022-10-28T09:57:44.608Z,21.20
2022-10-28T10:02:48.714Z,23.10
2022-10-28T10:08:03.619Z,19.30
2022-10-28T10:13:08.597Z,17.60
2022-10-28T10:18:20.454Z,14.90
2022-10-28T10:23:33.985Z,14.70
2022-10-28T10:28:47.275Z,19.00
2022-10-28T10:33:53.912Z,17.60
2022-10-28T10:38:59.166Z,17.10
2022-10-28T10:44:02.889Z,17.70
2022-10-28T10:49:15.597Z,17.30
2022-10-28T10:54:19.597Z,18.30
2022-10-28T10:59:30.012Z,18.90
2022-10-28T11:04:37.072Z,18.90
2022-10-28T11:09:42.627Z,26.20
2022-10-28T11:14:58.279Z,23.60
2022-10-28T11:20:25.307Z,22.10
2022-10-28T11:25:47.153Z,21.80
2022-10-28T11:31:02.855Z,21.50
2022-10-28T11:36:23.461Z,21.50
2022-10-28T11:41:58.536Z,26.90
2022-10-28T11:47:34.698Z,20.40
2022-10-28T11:52:50.096Z,27.20
2022-10-28T11:58:02.187Z,23.20
2022-10-28T12:03:38.183Z,19.90
2022-10-28T12:09:01.516Z,17.00
2022-10-28T12:14:29.557Z,18.70
2022-10-28T12:19:44.232Z,20.50
2022-10-28T12:24:47.634Z,19.70
2022-10-28T12:29:56.283Z,30.30
2022-10-28T12:35:10.233Z,25.90
2022-10-28T12:40:28.517Z,20.30
2022-10-28T12:45:32.832Z,19.80
2022-10-28T12:50:46.999Z,18.90
2022-10-28T12:56:00.075Z,20.90
2022-10-28T13:01:16.223Z,18.80
2022-10-28T13:06:47.208Z,20.50
2022-10-28T13:12:26.365Z,21.50
2022-10-28T13:17:48.099Z,20.50
2022-10-28T13:23:11.381Z,22.20
2022-10-28T13:28:18.582Z,18.60
2022-10-28T13:33:26.019Z,20.80
2022-10-28T13:38:29.503Z,23.60
2022-10-28T13:43:51.733Z,18.70
2022-10-28T13:49:25.071Z,18.10
2022-10-28T13:54:45.367Z,21.80
2022-10-28T13:59:57.699Z,17.60
2022-10-28T14:05:03.220Z,21.10
2022-10-28T14:10:37.604Z,23.90
2022-10-28T14:15:41.798Z,19.70
2022-10-28T14:20:48.109Z,17.00
2022-10-28T14:25:51.325Z,20.80
2022-10-28T14:31:09.964Z,18.50
2022-10-28T14:36:19.792Z,20.70
2022-10-28T14:41:39.507Z,19.60
2022-10-28T14:46:52.792Z,16.40
2022-10-28T14:51:58.658Z,20.80
2022-10-28T14:57:03.140Z,20.40
2022-10-28T15:02:21.938Z,24.70
2022-10-28T15:07:26.128Z,26.50
2022-10-28T15:12:30.125Z,27.50
2022-10-28T15:32:20.232Z,22.30
2022-10-28T15:37:28.609Z,26.20
2022-10-28T15:43:03.038Z,22.30
2022-10-28T15:48:13.884Z,21.50
2022-10-28T15:53:23.587Z,33.60
2022-10-28T15:58:33.814Z,27.10
2022-10-28T16:03:48.900Z,28.60
2022-10-28T16:09:12.075Z,28.80
2022-10-28T16:14:33.593Z,30.70
2022-10-28T16:19:40.404Z,64.70
2022-10-28T16:24:43.512Z,77.30
2022-10-28T16:34:49.824Z,53.50
2022-10-28T16:39:54.466Z,52.30
2022-10-28T16:44:59.011Z,52.60
2022-10-28T16:50:03.236Z,40.20
2022-10-28T16:55:16.726Z,32.60
2022-10-28T17:00:20.511Z,72.60
2022-10-28T17:05:24.843Z,48.30
2022-10-28T17:10:28.768Z,39.40
2022-10-28T17:15:32.077Z,41.20
2022-10-28T17:20:36.133Z,39.90
2022-10-28T17:30:48.062Z,40.20
2022-10-28T17:35:51.466Z,32.10
2022-10-28T17:40:56.005Z,29.80
2022-10-28T17:46:06.892Z,57.90
2022-10-28T17:51:11.428Z,55.20
2022-10-28T17:56:14.730Z,250.00
2022-10-28T18:01:18.429Z,77.40
2022-10-28T18:06:21.771Z,40.90
2022-10-28T18:11:25.802Z,114.20
2022-10-28T18:16:29.213Z,74.80
2022-10-28T18:21:32.937Z,131.80
2022-10-28T18:26:38.187Z,112.20
2022-10-28T18:31:44.266Z,192.50
2022-10-28T18:36:47.483Z,55.00
2022-10-28T18:41:51.650Z,62.90
2022-10-28T18:46:55.528Z,41.00
2022-10-28T18:52:00.401Z,95.50
2022-10-28T18:57:04.609Z,53.10
2022-10-28T19:02:09.494Z,55.10
2022-10-28T19:07:13.686Z,49.00
2022-10-28T19:12:17.001Z,80.50
2022-10-28T19:17:20.205Z,85.80
2022-10-28T19:27:26.624Z,40.10
2022-10-28T19:32:31.796Z,47.50
2022-10-28T19:37:35.495Z,78.60
2022-10-28T19:42:40.902Z,48.50
2022-10-28T19:47:45.290Z,53.70
2022-10-28T19:52:48.826Z,43.40
2022-10-28T19:57:53.047Z,47.60
2022-10-28T20:02:56.452Z,35.30
2022-10-28T20:08:01.096Z,37.30
2022-10-28T20:13:05.534Z,29.70
2022-10-28T20:18:08.635Z,28.70
2022-10-28T20:33:19.694Z,34.00
2022-10-28T20:38:24.463Z,38.70
2022-10-28T20:43:29.797Z,32.60
2022-10-28T20:48:33.827Z,35.20
2022-10-28T20:53:37.545Z,30.30
2022-10-28T20:58:40.761Z,30.60
2022-10-28T21:08:47.585Z,30.60
2022-10-28T21:13:58.710Z,30.80
2022-10-28T21:19:02.111Z,27.40
2022-10-28T21:24:06.009Z,26.40
2022-10-28T21:29:09.219Z,27.20
2022-10-28T21:34:12.326Z,32.00
2022-10-28T21:44:19.051Z,32.80
2022-10-28T21:49:22.157Z,26.30
2022-10-28T21:59:28.364Z,26.00
2022-10-28T22:04:31.677Z,27.90
2022-10-28T22:09:36.610Z,24.90
2022-10-28T22:14:40.854Z,28.10
2022-10-28T22:24:46.965Z,27.20
2022-10-28T22:34:53.280Z,28.70
2022-10-28T22:44:59.795Z,30.70
2022-10-28T22:50:03.824Z,30.30
2022-10-28T22:55:07.647Z,29.30
2022-10-28T23:00:11.932Z,28.60
2022-10-28T23:05:15.188Z,28.60
2022-10-28T23:10:18.396Z,32.90
2022-10-28T23:15:21.605Z,23.80
2022-10-28T23:20:25.921Z,27.10
2022-10-28T23:25:29.150Z,28.50
2022-10-28T23:30:32.977Z,26.50
2022-10-28T23:35:37.308Z,25.50
2022-10-28T23:40:40.432Z,25.80
2022-10-28T23:50:48.137Z,27.80
2022-10-28T23:55:51.876Z,21.50
